Hlavní strana
METAR-TAF:

METAR-TAF

Letiště :

Letiště Longyearbyen

Longyearbyen, Norsko

zeměpisná šířka: 78-15N, zeměpisná délka: 015-28E, výška: 2 m

Aktuální stav počasí

Zpráva byla vytvořena před 42 minutami, v 03:50 UTC
Východojihovýchodní vítr 19 kt
Teplota -1°C
Vlhkost vzduchu 69%
Tlak 1023 hPa
Viditelnost 10 km a více
Skoro jasno ve výšce 3000 ft
Oblačno až skoro zataženo ve výšce 5500 ft

METAR: ENSB 180350Z 11019KT 9999 FEW030 BKN055 M01/M06 Q1023 RMK WIND 1400FT VRB03KT

Čas: 05:32 (04:32 UTC)

Předpověď počasí

Předpověď platná od 18 v 00 UTC do 18 v 24 UTC
Jihojihovýchodní vítr 15 kt
Viditelnost 10 km a více
Skoro jasno ve výšce 1000 ft
Oblačno až skoro zataženo ve výšce 3000 ft
Dočasný
od 18 v 00 UTC do 18 v 24 UTC
Jihojihovýchodní vítr 5 kt

TAF: ENSB 1800/1824 15015KT 9999 FEW010 BKN030 TEMPO 1800/1824 15005KT

Stav a předpovědi počasí z více než 4 000 letišť (zprávy METAR a TAF).

Červené a žluté tečky na mapě představují dostupné meteorologické stanice.

Když kurzor umístíte na tečku, zobrazí se název stanice.

Pak kliknutím zobrazíte stav a předpověď počasí.

Chcete-li změnit mapu, kliknutím na zelené tlačítko se znaménkem +mapu přiblížíte, kliknutím na zelené tlačítko se znaménkem – mapu oddálíte a kliknutím na zelené šipky přejdete na sousední mapy.


METAR-TAF: